Time;durP1;ratioP1;P1;durP2;ratioP2;P2;SDS_P1;SDS_P2;PMS_P1;PMS_P2;Temp;Humidity;BMP_temperature;BMP_pressure;BME280_temperature;BME280_humidity;BME280_pressure;Samples;Min_cycle;Max_cycle;Signal;HPM_P1;HPM_P2
2022/07/17 00:00:06;;;;;;;6.88;1.90;;;;;;;;;;6227303;23;20017;-82
2022/07/17 00:02:35;;;;;;;4.00;2.13;;;;;;;;;;6225418;22;20040;-82
2022/07/17 00:05:02;;;;;;;5.80;2.13;;;;;;;;;;6225879;23;20799;-82
2022/07/17 00:07:31;;;;;;;5.05;2.20;;;;;;;;;;6223971;23;20072;-82
2022/07/17 00:09:58;;;;;;;6.50;2.28;;;;;;;;;;6224501;23;20025;-82
2022/07/17 00:12:25;;;;;;;5.55;2.83;;;;;;;;;;6223710;23;20024;-83
2022/07/17 00:14:56;;;;;;;7.65;2.08;;;;;;;;;;6223026;23;20765;-83
2022/07/17 00:17:23;;;;;;;4.72;2.25;;;;;;;;;;6223782;23;20150;-82
2022/07/17 00:19:51;;;;;;;5.05;2.00;;;;;;;;;;6224875;23;20426;-82
2022/07/17 00:22:18;;;;;;;5.10;2.33;;;;;;;;;;6225045;23;20018;-83
2022/07/17 00:24:45;;;;;;;6.30;2.20;;;;;;;;;;6223734;23;20029;-84
2022/07/17 00:27:18;;;;;;;6.78;1.90;;;;;;;;;;6223633;23;20057;-83
2022/07/17 00:29:46;;;;;;;;;;;;;;;;;;6224598;22;20068;-84
2022/07/17 00:32:13;;;;;;;5.45;1.92;;;;;;;;;;6223183;23;42340;-83
2022/07/17 00:34:40;;;;;;;5.05;2.00;;;;;;;;;;6222638;23;20033;-82
2022/07/17 00:37:07;;;;;;;16.52;2.25;;;;;;;;;;6224708;23;20028;-82
2022/07/17 00:39:37;;;;;;;6.55;2.30;;;;;;;;;;6226924;23;20025;-82
2022/07/17 00:42:04;;;;;;;5.90;2.42;;;;;;;;;;6226089;23;20021;-83
2022/07/17 00:44:33;;;;;;;5.28;1.98;;;;;;;;;;6227371;23;20040;-82
2022/07/17 00:47:01;;;;;;;5.25;2.13;;;;;;;;;;6228291;23;20025;-82
2022/07/17 00:49:28;;;;;;;4.93;2.20;;;;;;;;;;6227880;23;20013;-82
2022/07/17 00:51:55;;;;;;;6.20;2.22;;;;;;;;;;6227494;23;20020;-83
2022/07/17 00:54:23;;;;;;;5.00;2.25;;;;;;;;;;6228806;23;20021;-82
2022/07/17 00:56:51;;;;;;;6.10;2.33;;;;;;;;;;6227296;23;20793;-83
2022/07/17 00:59:19;;;;;;;5.05;2.20;;;;;;;;;;6229362;22;20071;-82
2022/07/17 01:01:46;;;;;;;8.50;2.10;;;;;;;;;;6227229;23;20025;-82
2022/07/17 01:04:14;;;;;;;4.75;2.10;;;;;;;;;;6227282;23;20112;-82
2022/07/17 01:06:42;;;;;;;4.65;2.08;;;;;;;;;;6226537;23;20412;-82
2022/07/17 01:09:14;;;;;;;5.68;2.08;;;;;;;;;;6228225;23;20104;-82
2022/07/17 01:11:45;;;;;;;6.22;2.10;;;;;;;;;;6227784;23;20076;-82
2022/07/17 01:14:13;;;;;;;5.15;1.85;;;;;;;;;;6227574;23;20451;-84
2022/07/17 01:16:41;;;;;;;5.80;1.83;;;;;;;;;;6226596;23;20797;-83
2022/07/17 01:19:09;;;;;;;4.97;1.90;;;;;;;;;;6226648;23;20025;-82
2022/07/17 01:21:44;;;;;;;7.80;1.98;;;;;;;;;;6228116;23;20962;-82
2022/07/17 01:24:12;;;;;;;3.80;2.05;;;;;;;;;;6228320;22;20040;-82
2022/07/17 01:26:46;;;;;;;4.50;2.00;;;;;;;;;;6226768;23;20021;-82
2022/07/17 01:29:14;;;;;;;4.85;2.15;;;;;;;;;;6225012;23;20021;-82
2022/07/17 01:31:41;;;;;;;3.17;1.88;;;;;;;;;;6228127;23;20780;-81
2022/07/17 01:34:10;;;;;;;5.43;2.03;;;;;;;;;;6225805;23;20083;-82
2022/07/17 01:36:37;;;;;;;2.85;1.80;;;;;;;;;;6226662;23;20022;-82
2022/07/17 01:39:06;;;;;;;3.65;1.80;;;;;;;;;;6228046;23;20032;-84
2022/07/17 01:41:34;;;;;;;6.03;1.83;;;;;;;;;;6227081;23;20017;-82
2022/07/17 01:44:03;;;;;;;5.22;2.20;;;;;;;;;;6226515;23;20702;-82
2022/07/17 01:46:30;;;;;;;4.13;2.22;;;;;;;;;;6228431;22;20021;-82
2022/07/17 01:48:58;;;;;;;4.65;1.83;;;;;;;;;;6226697;23;20128;-82
2022/07/17 01:51:25;;;;;;;5.63;2.20;;;;;;;;;;6226818;23;20021;-82
2022/07/17 01:53:57;;;;;;;4.83;1.93;;;;;;;;;;6228761;23;20010;-82
2022/07/17 01:56:24;;;;;;;3.75;1.73;;;;;;;;;;6226620;23;20065;-83
2022/07/17 01:58:52;;;;;;;4.20;1.92;;;;;;;;;;6228471;23;20024;-82
2022/07/17 02:01:21;;;;;;;5.90;2.17;;;;;;;;;;6227117;23;20031;-82
2022/07/17 02:03:48;;;;;;;3.10;1.90;;;;;;;;;;6229830;23;20048;-82
2022/07/17 02:06:16;;;;;;;4.00;2.08;;;;;;;;;;6227986;23;20069;-82
2022/07/17 02:08:48;;;;;;;9.35;2.10;;;;;;;;;;6225329;23;20111;-84
2022/07/17 02:11:16;;;;;;;5.15;1.92;;;;;;;;;;6225862;23;20025;-81
2022/07/17 02:13:43;;;;;;;5.78;2.17;;;;;;;;;;6225340;23;20104;-83
2022/07/17 02:16:10;;;;;;;4.03;2.33;;;;;;;;;;6222662;23;20025;-81
2022/07/17 02:18:37;;;;;;;4.97;2.17;;;;;;;;;;6227340;23;20586;-82
2022/07/17 02:21:07;;;;;;;5.00;2.05;;;;;;;;;;6222987;22;20052;-82
2022/07/17 02:23:34;;;;;;;5.88;2.00;;;;;;;;;;6221340;23;20079;-81
2022/07/17 02:26:01;;;;;;;5.55;2.20;;;;;;;;;;6221548;23;20013;-82
2022/07/17 02:28:28;;;;;;;3.58;1.80;;;;;;;;;;6220371;23;20091;-81
2022/07/17 02:30:56;;;;;;;3.00;1.77;;;;;;;;;;6220986;23;20068;-81
2022/07/17 02:33:23;;;;;;;5.18;1.70;;;;;;;;;;6218811;23;20459;-82
2022/07/17 02:35:52;;;;;;;4.35;1.90;;;;;;;;;;6217687;23;20021;-82
2022/07/17 02:38:20;;;;;;;4.60;1.85;;;;;;;;;;6218489;23;20068;-82
2022/07/17 02:40:47;;;;;;;4.47;2.10;;;;;;;;;;6218154;23;20025;-82
2022/07/17 02:43:17;;;;;;;2.67;1.60;;;;;;;;;;6218527;23;20908;-81
2022/07/17 02:45:44;;;;;;;4.00;1.80;;;;;;;;;;6218766;23;20021;-81
2022/07/17 02:48:11;;;;;;;4.22;1.80;;;;;;;;;;6219500;23;20092;-81
2022/07/17 02:50:41;;;;;;;4.15;1.70;;;;;;;;;;6221977;23;20027;-82
2022/07/17 02:53:08;;;;;;;2.65;1.70;;;;;;;;;;6220098;23;20025;-82
2022/07/17 02:55:36;;;;;;;6.10;2.00;;;;;;;;;;6220790;23;20025;-82
2022/07/17 02:58:03;;;;;;;3.13;1.80;;;;;;;;;;6220523;23;20025;-81
2022/07/17 03:00:30;;;;;;;4.05;1.65;;;;;;;;;;6218343;23;20017;-81
2022/07/17 03:02:58;;;;;;;3.65;1.67;;;;;;;;;;6221006;23;20036;-81
2022/07/17 03:05:25;;;;;;;6.60;1.70;;;;;;;;;;6219367;23;20105;-81
2022/07/17 03:07:52;;;;;;;7.57;1.98;;;;;;;;;;6222549;23;20041;-81
2022/07/17 03:10:19;;;;;;;2.85;1.50;;;;;;;;;;6219398;23;20021;-82
2022/07/17 03:12:47;;;;;;;3.83;1.83;;;;;;;;;;6219847;23;20002;-81
2022/07/17 03:15:14;;;;;;;5.50;2.10;;;;;;;;;;6225831;23;20013;-82
2022/07/17 03:17:44;;;;;;;3.65;1.70;;;;;;;;;;6229214;23;20017;-81
2022/07/17 03:20:11;;;;;;;4.10;1.92;;;;;;;;;;6228448;23;20021;-81
2022/07/17 03:22:39;;;;;;;4.00;2.00;;;;;;;;;;6228852;23;20032;-81
2022/07/17 03:25:06;;;;;;;5.25;2.00;;;;;;;;;;6228110;23;20027;-82
2022/07/17 03:27:35;;;;;;;4.80;1.90;;;;;;;;;;6226971;23;20021;-81
2022/07/17 03:30:06;;;;;;;3.42;1.70;;;;;;;;;;6220426;23;20021;-81
2022/07/17 03:32:34;;;;;;;2.90;1.77;;;;;;;;;;6221291;23;20025;-81
2022/07/17 03:35:02;;;;;;;3.92;1.92;;;;;;;;;;6219739;23;20023;-81
2022/07/17 03:37:30;;;;;;;3.00;1.80;;;;;;;;;;6219226;23;20021;-81
2022/07/17 03:39:57;;;;;;;4.35;1.75;;;;;;;;;;6219153;23;20068;-81
2022/07/17 03:42:24;;;;;;;2.88;1.50;;;;;;;;;;6221036;23;20021;-81
2022/07/17 03:44:52;;;;;;;6.05;1.50;;;;;;;;;;6220878;23;20075;-81
2022/07/17 03:47:22;;;;;;;5.13;1.65;;;;;;;;;;6218966;23;20447;-81
2022/07/17 03:49:50;;;;;;;3.75;1.70;;;;;;;;;;6221189;23;20480;-81
2022/07/17 03:52:17;;;;;;;2.40;1.50;;;;;;;;;;6219166;23;20009;-81
2022/07/17 03:54:46;;;;;;;2.35;1.50;;;;;;;;;;6221353;23;20029;-82
2022/07/17 03:57:13;;;;;;;3.30;1.73;;;;;;;;;;6219182;23;20021;-82
2022/07/17 03:59:40;;;;;;;4.15;1.90;;;;;;;;;;6221452;23;20021;-81
2022/07/17 04:02:08;;;;;;;5.80;1.85;;;;;;;;;;6220088;23;20580;-81
2022/07/17 04:04:36;;;;;;;3.50;2.00;;;;;;;;;;6219176;23;20096;-82
2022/07/17 04:07:03;;;;;;;5.00;1.60;;;;;;;;;;6221130;23;20021;-81
2022/07/17 04:09:33;;;;;;;4.10;1.90;;;;;;;;;;6219396;23;20036;-83
2022/07/17 04:12:00;;;;;;;2.75;1.40;;;;;;;;;;6219632;23;20025;-83
2022/07/17 04:14:27;;;;;;;5.95;2.10;;;;;;;;;;6219993;23;20502;-83
2022/07/17 04:16:57;;;;;;;3.85;1.60;;;;;;;;;;6221641;23;20021;-84
2022/07/17 04:19:24;;;;;;;6.60;2.08;;;;;;;;;;6220873;23;20045;-82
2022/07/17 04:21:51;;;;;;;3.75;1.63;;;;;;;;;;6220961;23;21083;-81
2022/07/17 04:24:18;;;;;;;2.85;1.65;;;;;;;;;;6220860;23;20017;-81
2022/07/17 04:26:48;;;;;;;5.72;1.75;;;;;;;;;;6220999;23;20025;-81
2022/07/17 04:29:15;;;;;;;2.58;1.75;;;;;;;;;;6222643;23;20036;-81
2022/07/17 04:31:43;;;;;;;4.97;2.15;;;;;;;;;;6220183;23;20067;-82
2022/07/17 04:34:11;;;;;;;3.28;1.50;;;;;;;;;;6220429;23;20021;-81
2022/07/17 04:36:38;;;;;;;5.50;2.00;;;;;;;;;;6220816;23;20142;-81
2022/07/17 04:39:05;;;;;;;3.58;1.70;;;;;;;;;;6222362;23;20025;-82
2022/07/17 04:41:33;;;;;;;7.60;2.00;;;;;;;;;;6220614;23;20017;-81
2022/07/17 04:44:00;;;;;;;5.65;1.80;;;;;;;;;;6220639;23;20036;-81
2022/07/17 04:46:27;;;;;;;7.72;1.70;;;;;;;;;;6220555;23;20036;-81
2022/07/17 04:48:54;;;;;;;3.25;1.77;;;;;;;;;;6220611;23;20020;-84
2022/07/17 04:51:22;;;;;;;5.60;2.10;;;;;;;;;;6220230;23;20067;-83
2022/07/17 04:53:49;;;;;;;4.90;1.92;;;;;;;;;;6220526;23;20072;-82
2022/07/17 04:56:18;;;;;;;6.07;1.95;;;;;;;;;;6220187;23;20021;-83
2022/07/17 04:58:46;;;;;;;2.45;1.70;;;;;;;;;;6220349;23;20159;-82
2022/07/17 05:01:13;;;;;;;2.90;1.95;;;;;;;;;;6219690;23;20096;-83
2022/07/17 05:03:40;;;;;;;5.40;2.15;;;;;;;;;;6219936;23;20084;-82
2022/07/17 05:06:09;;;;;;;7.78;2.42;;;;;;;;;;6219974;23;20017;-82
2022/07/17 05:08:36;;;;;;;4.97;2.58;;;;;;;;;;6220682;23;20857;-83
2022/07/17 05:11:09;;;;;;;6.68;3.00;;;;;;;;;;6222359;23;20024;-82
2022/07/17 05:13:36;;;;;;;5.93;2.90;;;;;;;;;;6220064;23;20029;-81
2022/07/17 05:16:09;;;;;;;5.80;2.80;;;;;;;;;;6219906;23;20802;-82
2022/07/17 05:18:37;;;;;;;5.47;3.00;;;;;;;;;;6227103;23;20056;-83
2022/07/17 05:21:07;;;;;;;6.38;2.20;;;;;;;;;;6230822;23;20025;-84
2022/07/17 05:23:34;;;;;;;7.40;2.88;;;;;;;;;;6230013;23;20020;-83
2022/07/17 05:26:01;;;;;;;4.88;2.60;;;;;;;;;;6232296;23;20021;-83
2022/07/17 05:28:29;;;;;;;5.18;2.67;;;;;;;;;;6232381;23;20522;-83
2022/07/17 05:31:07;;;;;;;5.10;2.70;;;;;;;;;;6236165;23;20013;-83
2022/07/17 05:33:35;;;;;;;5.60;2.65;;;;;;;;;;6240528;23;20044;-83
2022/07/17 05:36:02;;;;;;;7.57;2.67;;;;;;;;;;6235528;23;20902;-83
2022/07/17 05:38:29;;;;;;;6.28;2.80;;;;;;;;;;6236107;23;20036;-83
2022/07/17 05:40:57;;;;;;;10.68;2.90;;;;;;;;;;6238954;23;20020;-82
2022/07/17 05:43:24;;;;;;;17.20;3.42;;;;;;;;;;6223529;23;20782;-82
2022/07/17 05:45:54;;;;;;;9.77;3.05;;;;;;;;;;6222178;23;20017;-82
2022/07/17 05:48:23;;;;;;;8.60;3.30;;;;;;;;;;6221517;23;20025;-82
2022/07/17 05:50:51;;;;;;;9.70;3.20;;;;;;;;;;6221131;23;20025;-82
2022/07/17 05:53:18;;;;;;;5.70;2.47;;;;;;;;;;6221427;23;20021;-83
2022/07/17 05:55:46;;;;;;;14.15;2.78;;;;;;;;;;6221697;23;20068;-82
2022/07/17 05:58:13;;;;;;;9.75;2.85;;;;;;;;;;6221148;23;20017;-82
2022/07/17 06:00:49;;;;;;;12.10;2.83;;;;;;;;;;6221502;23;20121;-82
2022/07/17 06:03:19;;;;;;;10.27;2.95;;;;;;;;;;6221358;23;20025;-83
2022/07/17 06:05:46;;;;;;;7.38;2.53;;;;;;;;;;6222142;23;20013;-83
2022/07/17 06:08:14;;;;;;;10.68;3.63;;;;;;;;;;6222888;23;20024;-82
2022/07/17 06:10:41;;;;;;;9.35;2.67;;;;;;;;;;6221494;23;20085;-83
2022/07/17 06:13:09;;;;;;;7.13;2.90;;;;;;;;;;6221169;23;20040;-82
2022/07/17 06:15:36;;;;;;;10.23;2.80;;;;;;;;;;6221659;23;20013;-83
2022/07/17 06:18:04;;;;;;;11.73;2.97;;;;;;;;;;6221707;23;20105;-83
2022/07/17 06:20:32;;;;;;;7.85;3.03;;;;;;;;;;6221997;23;20030;-83
2022/07/17 06:22:59;;;;;;;12.50;3.08;;;;;;;;;;6221584;23;20021;-82
2022/07/17 06:25:26;;;;;;;13.52;2.85;;;;;;;;;;6221909;23;20013;-83
2022/07/17 06:27:57;;;;;;;12.80;3.35;;;;;;;;;;6221135;23;20009;-83
2022/07/17 06:30:26;;;;;;;7.23;3.20;;;;;;;;;;6221804;23;20108;-83
2022/07/17 06:32:54;;;;;;;9.85;2.97;;;;;;;;;;6221240;23;20021;-83
2022/07/17 06:35:23;;;;;;;12.50;3.17;;;;;;;;;;6220804;23;20013;-83
2022/07/17 06:37:51;;;;;;;9.93;2.97;;;;;;;;;;6221242;23;20021;-83
2022/07/17 06:40:18;;;;;;;8.90;2.53;;;;;;;;;;6221389;23;20021;-83
2022/07/17 06:42:46;;;;;;;13.63;3.40;;;;;;;;;;6222115;23;20025;-83
2022/07/17 06:45:13;;;;;;;9.07;2.45;;;;;;;;;;6222282;22;20359;-84
2022/07/17 06:47:43;;;;;;;6.68;2.53;;;;;;;;;;6220335;23;20020;-82
2022/07/17 06:50:10;;;;;;;6.03;2.40;;;;;;;;;;6221240;23;20029;-83
2022/07/17 06:52:38;;;;;;;6.15;2.35;;;;;;;;;;6222789;23;20039;-83
2022/07/17 06:55:12;;;;;;;7.82;2.05;;;;;;;;;;6221658;23;20032;-83
2022/07/17 06:57:48;;;;;;;18.77;2.60;;;;;;;;;;6223325;23;20009;-83
2022/07/17 07:00:18;;;;;;;6.50;2.20;;;;;;;;;;6221439;23;20009;-84
2022/07/17 07:02:45;;;;;;;4.93;2.42;;;;;;;;;;6221109;23;20017;-83
2022/07/17 07:05:15;;;;;;;12.70;2.25;;;;;;;;;;6221833;23;20056;-84
2022/07/17 07:07:47;;;;;;;4.70;2.03;;;;;;;;;;6220968;23;20045;-85
2022/07/17 07:10:17;;;;;;;6.53;2.20;;;;;;;;;;6233268;23;20057;-84
2022/07/17 07:12:47;;;;;;;5.63;1.80;;;;;;;;;;6234506;23;20017;-84
2022/07/17 07:15:17;;;;;;;10.52;1.98;;;;;;;;;;6227438;23;20638;-84
2022/07/17 07:17:47;;;;;;;7.47;1.90;;;;;;;;;;6226552;23;20021;-84
2022/07/17 07:20:17;;;;;;;9.77;1.90;;;;;;;;;;6225815;23;20009;-84
2022/07/17 07:22:45;;;;;;;7.07;1.92;;;;;;;;;;6225315;23;20048;-83
2022/07/17 07:25:17;;;;;;;7.40;1.95;;;;;;;;;;6226719;23;20044;-84
2022/07/17 07:27:45;;;;;;;7.97;2.00;;;;;;;;;;6225138;23;20060;-84
2022/07/17 07:30:16;;;;;;;5.35;2.05;;;;;;;;;;6226360;23;20021;-84
2022/07/17 07:32:47;;;;;;;7.57;1.98;;;;;;;;;;6225056;23;20053;-84
2022/07/17 07:35:18;;;;;;;8.07;2.03;;;;;;;;;;6224892;23;20017;-84
2022/07/17 07:37:45;;;;;;;4.72;1.30;;;;;;;;;;6223602;23;20017;-84
2022/07/17 07:40:16;;;;;;;4.45;1.38;;;;;;;;;;6224661;23;20031;-84
2022/07/17 07:42:44;;;;;;;9.63;1.48;;;;;;;;;;6232444;23;20024;-84
2022/07/17 07:45:15;;;;;;;8.52;1.45;;;;;;;;;;6236070;23;20016;-84
2022/07/17 07:47:52;;;;;;;6.43;1.42;;;;;;;;;;6237436;23;20020;-85
2022/07/17 07:50:22;;;;;;;6.13;1.58;;;;;;;;;;6233993;23;20032;-84
2022/07/17 07:52:50;;;;;;;6.07;1.20;;;;;;;;;;6234242;23;20844;-84
2022/07/17 07:55:21;;;;;;;5.30;1.30;;;;;;;;;;6237443;23;20020;-84
2022/07/17 07:58:04;;;;;;;5.13;1.20;;;;;;;;;;6222446;23;20021;-84
2022/07/17 08:00:31;;;;;;;3.60;1.30;;;;;;;;;;6221527;23;20082;-84
2022/07/17 08:03:19;;;;;;;5.05;1.23;;;;;;;;;;6221729;23;20618;-84
2022/07/17 08:05:53;;;;;;;3.72;1.25;;;;;;;;;;6224852;23;20765;-82
2022/07/17 08:08:31;;;;;;;8.52;1.70;;;;;;;;;;6226880;22;20064;-85
2022/07/17 08:11:05;;;;;;;8.55;1.55;;;;;;;;;;6234041;23;20050;-83
2022/07/17 08:13:34;;;;;;;7.20;1.73;;;;;;;;;;6240686;22;20017;-82
2022/07/17 08:16:04;;;;;;;7.13;1.50;;;;;;;;;;6212113;23;20108;-81
2022/07/17 08:18:38;;;;;;;3.30;1.15;;;;;;;;;;6208836;22;20076;-90
2022/07/17 08:29:15;;;;;;;5.30;1.30;;;;;;;;;;6161072;22;20021;-79
2022/07/17 08:32:05;;;;;;;7.05;1.95;;;;;;;;;;6193778;23;20033;-85
2022/07/17 08:34:36;;;;;;;6.00;1.60;;;;;;;;;;6192445;23;20153;-86
2022/07/17 08:37:05;;;;;;;9.45;1.50;;;;;;;;;;6200099;23;20041;-83
2022/07/17 08:39:32;;;;;;;9.68;1.70;;;;;;;;;;6203877;22;20028;-83
2022/07/17 08:42:07;;;;;;;6.50;1.60;;;;;;;;;;6193316;23;20045;-82
2022/07/17 08:44:34;;;;;;;4.63;1.45;;;;;;;;;;6205566;23;20045;-84
2022/07/17 08:47:07;;;;;;;7.85;1.50;;;;;;;;;;6208074;22;20016;-86
2022/07/17 08:49:44;;;;;;;4.53;1.17;;;;;;;;;;6203909;22;20017;-84
2022/07/17 08:52:20;;;;;;;6.97;1.55;;;;;;;;;;6194262;23;20100;-85
2022/07/17 08:54:58;;;;;;;7.25;1.15;;;;;;;;;;6191732;23;20084;-85
2022/07/17 08:57:30;;;;;;;10.00;1.27;;;;;;;;;;6188801;23;20831;-85
2022/07/17 08:59:58;;;;;;;4.88;1.20;;;;;;;;;;6190231;23;20018;-84
2022/07/17 09:11:21;;;;;;;5.60;1.40;;;;;;;;;;6137552;22;2596069;-81
2022/07/17 09:13:53;;;;;;;3.50;1.30;;;;;;;;;;6235920;23;20033;-80
2022/07/17 09:16:23;;;;;;;2.92;1.27;;;;;;;;;;6228764;23;20025;-82
2022/07/17 09:19:05;;;;;;;6.68;1.45;;;;;;;;;;6225985;23;20019;-85
2022/07/17 09:21:39;;;;;;;6.83;1.33;;;;;;;;;;6225699;23;20532;-86
2022/07/17 09:24:23;;;;;;;3.80;1.17;;;;;;;;;;6228631;22;20220;-84
2022/07/17 09:26:54;;;;;;;9.52;1.67;;;;;;;;;;6226702;23;20071;-85
2022/07/17 09:29:23;;;;;;;2.55;1.13;;;;;;;;;;6227702;23;20023;-85
2022/07/17 09:32:00;;;;;;;6.45;1.10;;;;;;;;;;6227314;23;20115;-88
2022/07/17 09:34:32;;;;;;;7.05;1.48;;;;;;;;;;6226626;23;20029;-85
2022/07/17 09:37:04;;;;;;;5.07;1.35;;;;;;;;;;6227515;23;20095;-84
2022/07/17 09:39:36;;;;;;;4.82;1.42;;;;;;;;;;6226448;23;20048;-81
2022/07/17 09:42:03;;;;;;;4.22;1.30;;;;;;;;;;6225819;23;20103;-82
2022/07/17 09:44:30;;;;;;;4.82;1.45;;;;;;;;;;6224436;23;20044;-82
2022/07/17 09:47:00;;;;;;;6.07;1.48;;;;;;;;;;6226040;22;20059;-84
2022/07/17 09:49:28;;;;;;;7.50;1.70;;;;;;;;;;6224958;23;20454;-83
2022/07/17 09:51:55;;;;;;;5.88;1.92;;;;;;;;;;6226724;22;20029;-82
2022/07/17 09:54:23;;;;;;;12.93;1.70;;;;;;;;;;6226511;22;20084;-81
2022/07/17 09:56:51;;;;;;;7.38;1.15;;;;;;;;;;6226578;22;20079;-82
2022/07/17 09:59:21;;;;;;;5.53;1.33;;;;;;;;;;6223680;23;20044;-82
2022/07/17 10:01:49;;;;;;;5.60;1.67;;;;;;;;;;6226593;22;20025;-82
2022/07/17 10:04:17;;;;;;;4.18;1.40;;;;;;;;;;6226168;22;20052;-81
2022/07/17 10:06:44;;;;;;;6.35;1.50;;;;;;;;;;6223280;23;20525;-82
2022/07/17 10:09:13;;;;;;;5.10;1.30;;;;;;;;;;6223689;23;20104;-80
2022/07/17 10:11:40;;;;;;;6.57;1.45;;;;;;;;;;6223732;23;20381;-83
2022/07/17 10:14:15;;;;;;;3.10;1.30;;;;;;;;;;6220362;22;20052;-83
2022/07/17 10:16:44;;;;;;;5.18;1.60;;;;;;;;;;6216116;23;20095;-82
2022/07/17 10:19:18;;;;;;;4.82;1.48;;;;;;;;;;6214726;23;20099;-81
2022/07/17 10:22:00;;;;;;;5.50;1.30;;;;;;;;;;6217764;23;20108;-83
2022/07/17 10:24:29;;;;;;;4.65;1.48;;;;;;;;;;6217336;23;20021;-82
2022/07/17 10:26:57;;;;;;;4.93;1.40;;;;;;;;;;6216219;23;20025;-82
2022/07/17 10:29:33;;;;;;;2.67;1.25;;;;;;;;;;6217261;23;20100;-81
2022/07/17 10:32:01;;;;;;;4.07;1.58;;;;;;;;;;6218090;23;20036;-81
2022/07/17 10:34:42;;;;;;;5.13;1.27;;;;;;;;;;6218681;22;20064;-81
2022/07/17 10:37:21;;;;;;;6.25;1.40;;;;;;;;;;6217160;23;20025;-82
2022/07/17 10:39:58;;;;;;;4.22;1.40;;;;;;;;;;6216779;23;20025;-81
2022/07/17 10:42:38;;;;;;;3.72;1.48;;;;;;;;;;6217032;23;20017;-80
2022/07/17 10:45:08;;;;;;;5.50;1.50;;;;;;;;;;6216719;23;20021;-83
2022/07/17 10:47:58;;;;;;;3.92;1.88;;;;;;;;;;6217902;23;20029;-84
2022/07/17 10:50:35;;;;;;;3.95;1.60;;;;;;;;;;6217770;23;20021;-82
2022/07/17 10:53:06;;;;;;;3.65;1.50;;;;;;;;;;6218590;22;20025;-82
2022/07/17 10:55:36;;;;;;;3.50;1.40;;;;;;;;;;6219460;22;20101;-82
2022/07/17 10:58:06;;;;;;;4.15;1.55;;;;;;;;;;6219448;22;20501;-82
2022/07/17 11:00:35;;;;;;;;;;;;;;;;;;6213689;23;20332;-83
2022/07/17 11:03:11;;;;;;;4.40;1.40;;;;;;;;;;6212388;23;45951;-82
2022/07/17 11:05:42;;;;;;;5.43;1.75;;;;;;;;;;6215818;23;20060;-81
2022/07/17 11:08:14;;;;;;;6.55;1.80;;;;;;;;;;6214662;22;20021;-82
2022/07/17 11:10:41;;;;;;;4.43;1.60;;;;;;;;;;6214949;23;20470;-82
2022/07/17 11:13:25;;;;;;;7.55;1.77;;;;;;;;;;6223234;22;20029;-86
2022/07/17 11:15:54;;;;;;;4.65;1.83;;;;;;;;;;6232089;23;20020;-85
2022/07/17 11:18:24;;;;;;;8.48;1.90;;;;;;;;;;6234800;23;20072;-81
2022/07/17 11:20:54;;;;;;;4.50;1.88;;;;;;;;;;6223912;22;20021;-81
2022/07/17 11:23:25;;;;;;;7.18;1.80;;;;;;;;;;6223865;22;20109;-81
2022/07/17 11:26:06;;;;;;;7.45;1.40;;;;;;;;;;6228200;22;20470;-81
2022/07/17 11:28:41;;;;;;;4.47;1.80;;;;;;;;;;6224962;22;20080;-81
2022/07/17 11:31:20;;;;;;;5.53;2.38;;;;;;;;;;6231188;22;20030;-81
2022/07/17 11:33:50;;;;;;;7.68;1.90;;;;;;;;;;6221312;22;20059;-84
2022/07/17 11:36:24;;;;;;;6.13;1.90;;;;;;;;;;6217498;22;20471;-84
2022/07/17 11:38:52;;;;;;;3.83;1.58;;;;;;;;;;6215439;23;20029;-84
2022/07/17 11:41:20;;;;;;;3.67;1.88;;;;;;;;;;6218496;22;20462;-84
2022/07/17 11:43:47;;;;;;;3.65;1.80;;;;;;;;;;6218645;22;20029;-84
2022/07/17 11:46:18;;;;;;;5.78;2.10;;;;;;;;;;6217790;23;20772;-84
2022/07/17 11:48:49;;;;;;;3.92;1.70;;;;;;;;;;6218801;22;20107;-83
2022/07/17 11:51:18;;;;;;;2.65;1.50;;;;;;;;;;6217727;23;20792;-83
2022/07/17 11:54:06;;;;;;;4.40;1.77;;;;;;;;;;6218212;23;20021;-83
2022/07/17 11:57:01;;;;;;;4.25;1.70;;;;;;;;;;6105848;23;20058;-83
2022/07/17 11:59:32;;;;;;;5.47;1.77;;;;;;;;;;6100998;23;20755;-82
2022/07/17 12:02:09;;;;;;;5.72;1.98;;;;;;;;;;6102391;23;20113;-82
2022/07/17 12:04:48;;;;;;;3.92;2.00;;;;;;;;;;6101462;23;20019;-83
2022/07/17 12:07:15;;;;;;;4.50;1.67;;;;;;;;;;6101184;23;20080;-83
2022/07/17 12:09:43;;;;;;;8.40;1.70;;;;;;;;;;6124586;23;20785;-83
2022/07/17 12:12:20;;;;;;;3.92;1.92;;;;;;;;;;6100676;23;20420;-82
2022/07/17 12:14:57;;;;;;;5.50;2.00;;;;;;;;;;6157722;23;20017;-82
2022/07/17 12:17:39;;;;;;;4.15;1.83;;;;;;;;;;6217215;23;20075;-80
2022/07/17 12:20:09;;;;;;;5.80;2.08;;;;;;;;;;6217647;23;20048;-81
2022/07/17 12:22:46;;;;;;;4.63;2.00;;;;;;;;;;6216648;23;20802;-84
2022/07/17 12:25:27;;;;;;;4.45;1.98;;;;;;;;;;6216417;23;20060;-83
2022/07/17 12:27:55;;;;;;;3.90;1.90;;;;;;;;;;6215955;23;20017;-83
2022/07/17 12:30:22;;;;;;;6.80;2.03;;;;;;;;;;6216546;23;20103;-84
2022/07/17 12:32:50;;;;;;;3.60;1.70;;;;;;;;;;6215420;23;20024;-83
2022/07/17 12:35:17;;;;;;;4.75;1.90;;;;;;;;;;6217469;22;20030;-84
2022/07/17 12:37:44;;;;;;;5.15;2.00;;;;;;;;;;6217336;22;20032;-83
2022/07/17 12:40:12;;;;;;;5.25;2.00;;;;;;;;;;6215848;23;20104;-83
2022/07/17 12:42:43;;;;;;;5.88;2.08;;;;;;;;;;6215915;23;20017;-82
2022/07/17 12:45:21;;;;;;;5.13;2.05;;;;;;;;;;6215503;23;20024;-83
2022/07/17 12:47:49;;;;;;;5.78;2.22;;;;;;;;;;6213978;23;20111;-83
2022/07/17 12:50:16;;;;;;;3.30;1.67;;;;;;;;;;6216530;22;20021;-83
2022/07/17 12:52:43;;;;;;;4.03;1.80;;;;;;;;;;6215960;23;20025;-83
2022/07/17 12:55:12;;;;;;;5.70;2.17;;;;;;;;;;6215884;23;20024;-83
2022/07/17 12:57:39;;;;;;;5.50;1.80;;;;;;;;;;6216279;23;20122;-82
2022/07/17 13:00:06;;;;;;;5.95;2.15;;;;;;;;;;6217543;22;20029;-83
2022/07/17 13:02:34;;;;;;;4.95;2.20;;;;;;;;;;6215135;23;20075;-83
2022/07/17 13:05:24;;;;;;;4.63;2.20;;;;;;;;;;6213710;23;20021;-83
2022/07/17 13:07:51;;;;;;;6.53;2.28;;;;;;;;;;6214222;23;20048;-83
2022/07/17 13:10:19;;;;;;;4.60;2.10;;;;;;;;;;6213267;23;20466;-83
2022/07/17 13:12:47;;;;;;;5.32;2.22;;;;;;;;;;6213440;23;20497;-83
2022/07/17 13:15:14;;;;;;;5.47;2.30;;;;;;;;;;6213590;23;20021;-83
2022/07/17 13:17:47;;;;;;;6.80;2.50;;;;;;;;;;6214778;23;20355;-83
2022/07/17 13:20:16;;;;;;;5.68;2.25;;;;;;;;;;6215573;23;20060;-83
2022/07/17 13:22:44;;;;;;;6.10;2.15;;;;;;;;;;6216063;23;20766;-83
2022/07/17 13:25:12;;;;;;;5.70;2.28;;;;;;;;;;6215323;23;20021;-83
2022/07/17 13:27:42;;;;;;;5.95;2.10;;;;;;;;;;6215800;23;20092;-83
2022/07/17 13:30:11;;;;;;;5.50;2.43;;;;;;;;;;6215752;23;20041;-83
2022/07/17 13:32:45;;;;;;;6.03;2.15;;;;;;;;;;6215424;23;20241;-83
2022/07/17 13:35:16;;;;;;;6.85;2.15;;;;;;;;;;6215878;23;20759;-83
2022/07/17 13:37:44;;;;;;;5.50;2.20;;;;;;;;;;6215936;23;20017;-83
2022/07/17 13:40:12;;;;;;;5.85;2.20;;;;;;;;;;6216824;22;20017;-83
2022/07/17 13:42:41;;;;;;;4.45;2.47;;;;;;;;;;6215235;23;20500;-83
2022/07/17 13:45:08;;;;;;;4.38;2.50;;;;;;;;;;6215421;23;20028;-83
2022/07/17 13:47:39;;;;;;;26.40;5.35;;;;;;;;;;6215532;23;20017;-83
2022/07/17 13:50:06;;;;;;;7.43;2.30;;;;;;;;;;6217334;23;20025;-83
2022/07/17 13:52:43;;;;;;;6.32;2.40;;;;;;;;;;6216778;23;20025;-83
2022/07/17 13:55:10;;;;;;;6.05;2.30;;;;;;;;;;6217678;23;20028;-83
2022/07/17 13:57:58;;;;;;;4.75;2.35;;;;;;;;;;6216699;23;20104;-84
2022/07/17 14:00:26;;;;;;;8.15;2.85;;;;;;;;;;6217393;23;20017;-83
2022/07/17 14:02:55;;;;;;;4.32;2.22;;;;;;;;;;6216111;23;20366;-84
2022/07/17 14:05:23;;;;;;;11.30;2.70;;;;;;;;;;6216882;23;20021;-84
2022/07/17 14:07:50;;;;;;;9.70;2.70;;;;;;;;;;6216975;23;20489;-84
2022/07/17 14:10:17;;;;;;;6.82;2.60;;;;;;;;;;6217033;23;20029;-83
2022/07/17 14:12:45;;;;;;;6.15;2.53;;;;;;;;;;6217272;23;20025;-83
2022/07/17 14:15:12;;;;;;;8.98;2.75;;;;;;;;;;6217321;23;20005;-84
2022/07/17 14:17:40;;;;;;;7.20;2.45;;;;;;;;;;6218622;23;20013;-83
2022/07/17 14:20:07;;;;;;;7.60;2.78;;;;;;;;;;6216777;23;20084;-83
2022/07/17 14:22:35;;;;;;;8.65;2.90;;;;;;;;;;6216802;23;20013;-83
2022/07/17 14:25:02;;;;;;;5.72;2.72;;;;;;;;;;6216115;23;20027;-83
2022/07/17 14:27:30;;;;;;;7.72;2.88;;;;;;;;;;6216517;23;20017;-83
2022/07/17 14:29:58;;;;;;;5.93;2.70;;;;;;;;;;6218314;22;20052;-83
2022/07/17 14:32:25;;;;;;;4.97;2.60;;;;;;;;;;6218665;22;20048;-83
2022/07/17 14:34:54;;;;;;;5.82;2.70;;;;;;;;;;6216799;23;20027;-84
2022/07/17 14:37:22;;;;;;;5.68;2.60;;;;;;;;;;6216578;23;20013;-83
2022/07/17 14:39:49;;;;;;;7.25;3.05;;;;;;;;;;6217179;23;20574;-83
2022/07/17 14:42:17;;;;;;;4.45;2.60;;;;;;;;;;6216747;23;20770;-83
2022/07/17 14:44:45;;;;;;;6.90;2.63;;;;;;;;;;6217084;23;20332;-84
2022/07/17 14:47:12;;;;;;;7.53;3.28;;;;;;;;;;6216781;23;20024;-83
2022/07/17 14:49:40;;;;;;;7.47;3.15;;;;;;;;;;6216487;23;20021;-83
2022/07/17 14:52:08;;;;;;;9.85;3.50;;;;;;;;;;6216382;23;20100;-83
2022/07/17 14:54:35;;;;;;;9.13;3.72;;;;;;;;;;6215888;23;20721;-83
2022/07/17 14:57:03;;;;;;;6.78;3.60;;;;;;;;;;6217461;23;20013;-83
2022/07/17 14:59:30;;;;;;;7.22;3.50;;;;;;;;;;6217694;23;20025;-83
2022/07/17 15:01:58;;;;;;;7.15;3.17;;;;;;;;;;6218429;23;20014;-81
2022/07/17 15:04:25;;;;;;;7.35;3.80;;;;;;;;;;6217941;23;20021;-81
2022/07/17 15:06:53;;;;;;;10.23;4.03;;;;;;;;;;6219800;22;20132;-81
2022/07/17 15:09:20;;;;;;;9.90;3.42;;;;;;;;;;6217575;23;20060;-81
2022/07/17 15:11:48;;;;;;;7.38;3.75;;;;;;;;;;6216162;23;20025;-81
2022/07/17 15:14:16;;;;;;;6.85;3.40;;;;;;;;;;6217380;23;20021;-81